sensor_id;sensor_type;location;lat;lon;timestamp;pressure;altitude;pressure_sealevel;temperature;humidity
46007;BME280;31738;50.188;8.524;2023-02-03T00:01:48;99880.41;;;8.57;87.26
46007;BME280;31738;50.188;8.524;2023-02-03T00:04:14;99861.94;;;8.56;87.66
46007;BME280;31738;50.188;8.524;2023-02-03T00:06:40;99832.28;;;8.57;87.17
46007;BME280;31738;50.188;8.524;2023-02-03T00:09:06;99813.78;;;8.56;87.29
46007;BME280;31738;50.188;8.524;2023-02-03T00:11:31;99824.50;;;8.56;87.24
46007;BME280;31738;50.188;8.524;2023-02-03T00:13:57;99842.38;;;8.55;87.31
46007;BME280;31738;50.188;8.524;2023-02-03T00:16:23;99844.81;;;8.57;87.16
46007;BME280;31738;50.188;8.524;2023-02-03T00:18:48;99826.09;;;8.57;87.34
46007;BME280;31738;50.188;8.524;2023-02-03T00:21:13;99812.50;;;8.58;87.40
46007;BME280;31738;50.188;8.524;2023-02-03T00:23:40;99816.81;;;8.59;87.48
46007;BME280;31738;50.188;8.524;2023-02-03T00:26:10;99810.41;;;8.60;87.91
46007;BME280;31738;50.188;8.524;2023-02-03T00:28:37;99831.00;;;8.60;87.94
46007;BME280;31738;50.188;8.524;2023-02-03T00:31:03;99824.38;;;8.62;87.71
46007;BME280;31738;50.188;8.524;2023-02-03T00:33:29;99826.59;;;8.65;87.87
46007;BME280;31738;50.188;8.524;2023-02-03T00:35:54;99829.25;;;8.65;87.38
46007;BME280;31738;50.188;8.524;2023-02-03T00:38:20;99832.53;;;8.68;87.32
46007;BME280;31738;50.188;8.524;2023-02-03T00:40:52;99832.28;;;8.69;87.60
46007;BME280;31738;50.188;8.524;2023-02-03T00:43:18;99831.47;;;8.68;87.35
46007;BME280;31738;50.188;8.524;2023-02-03T00:45:44;99824.59;;;8.73;87.50
46007;BME280;31738;50.188;8.524;2023-02-03T00:48:09;99813.09;;;8.72;87.49
46007;BME280;31738;50.188;8.524;2023-02-03T00:50:35;99801.81;;;8.70;88.00
46007;BME280;31738;50.188;8.524;2023-02-03T00:53:00;99798.06;;;8.71;87.60
46007;BME280;31738;50.188;8.524;2023-02-03T00:55:26;99783.91;;;8.71;88.18
46007;BME280;31738;50.188;8.524;2023-02-03T00:57:51;99771.56;;;8.69;87.71
46007;BME280;31738;50.188;8.524;2023-02-03T01:00:18;99756.34;;;8.70;88.37
46007;BME280;31738;50.188;8.524;2023-02-03T01:02:43;99742.16;;;8.69;88.24
46007;BME280;31738;50.188;8.524;2023-02-03T01:05:09;99758.44;;;8.68;88.62
46007;BME280;31738;50.188;8.524;2023-02-03T01:07:35;99769.13;;;8.68;88.54
46007;BME280;31738;50.188;8.524;2023-02-03T01:10:01;99790.75;;;8.66;88.46
46007;BME280;31738;50.188;8.524;2023-02-03T01:12:30;99785.16;;;8.68;88.41
46007;BME280;31738;50.188;8.524;2023-02-03T01:14:58;99779.03;;;8.68;88.72
46007;BME280;31738;50.188;8.524;2023-02-03T01:17:23;99761.09;;;8.68;88.99
46007;BME280;31738;50.188;8.524;2023-02-03T01:19:50;99770.78;;;8.69;88.69
46007;BME280;31738;50.188;8.524;2023-02-03T01:22:16;99775.28;;;8.68;88.69
46007;BME280;31738;50.188;8.524;2023-02-03T01:24:41;99775.28;;;8.68;88.77
46007;BME280;31738;50.188;8.524;2023-02-03T01:27:07;99761.09;;;8.68;88.88
46007;BME280;31738;50.188;8.524;2023-02-03T01:29:33;99758.44;;;8.68;88.20
46007;BME280;31738;50.188;8.524;2023-02-03T01:31:58;99771.56;;;8.69;88.19
46007;BME280;31738;50.188;8.524;2023-02-03T01:34:24;99757.63;;;8.68;88.39
46007;BME280;31738;50.188;8.524;2023-02-03T01:36:50;99759.25;;;8.68;88.77
46007;BME280;31738;50.188;8.524;2023-02-03T01:39:16;99759.25;;;8.68;88.56
46007;BME280;31738;50.188;8.524;2023-02-03T01:41:44;99754.72;;;8.69;88.72
46007;BME280;31738;50.188;8.524;2023-02-03T01:44:52;99754.72;;;8.69;88.67
46007;BME280;31738;50.188;8.524;2023-02-03T01:47:27;99752.72;;;8.64;88.15
46007;BME280;31738;50.188;8.524;2023-02-03T01:50:21;99747.63;;;8.63;88.25
46007;BME280;31738;50.188;8.524;2023-02-03T01:52:53;99744.38;;;8.61;88.88
46007;BME280;31738;50.188;8.524;2023-02-03T01:55:26;99756.47;;;8.63;88.65
46007;BME280;31738;50.188;8.524;2023-02-03T01:57:59;99751.94;;;8.64;88.98
46007;BME280;31738;50.188;8.524;2023-02-03T02:00:27;99746.59;;;8.64;88.93
46007;BME280;31738;50.188;8.524;2023-02-03T02:02:57;99739.94;;;8.66;88.78
46007;BME280;31738;50.188;8.524;2023-02-03T02:05:46;99740.41;;;8.63;88.51
46007;BME280;31738;50.188;8.524;2023-02-03T02:08:14;99737.75;;;8.63;89.10
46007;BME280;31738;50.188;8.524;2023-02-03T02:10:39;99730.53;;;8.64;89.32
46007;BME280;31738;50.188;8.524;2023-02-03T02:13:05;99731.34;;;8.64;89.46
46007;BME280;31738;50.188;8.524;2023-02-03T02:18:23;99744.94;;;8.63;89.60
46007;BME280;31738;50.188;8.524;2023-02-03T02:21:11;99742.50;;;8.61;89.18
46007;BME280;31738;50.188;8.524;2023-02-03T02:26:50;99750.19;;;8.58;89.46
46007;BME280;31738;50.188;8.524;2023-02-03T02:30:02;99749.38;;;8.57;90.02
46007;BME280;31738;50.188;8.524;2023-02-03T02:32:58;99738.56;;;8.52;89.57
46007;BME280;31738;50.188;8.524;2023-02-03T02:41:06;99759.97;;;8.52;90.31
46007;BME280;31738;50.188;8.524;2023-02-03T02:43:40;99770.09;;;8.50;90.52
46007;BME280;31738;50.188;8.524;2023-02-03T02:46:16;99769.03;;;8.51;89.89
46007;BME280;31738;50.188;8.524;2023-02-03T02:48:48;99774.38;;;8.51;90.70
46007;BME280;31738;50.188;8.524;2023-02-03T02:51:17;99762.63;;;8.52;90.76
46007;BME280;31738;50.188;8.524;2023-02-03T02:53:52;99764.28;;;8.53;90.76
46007;BME280;31738;50.188;8.524;2023-02-03T02:56:19;99776.00;;;8.52;90.67
46007;BME280;31738;50.188;8.524;2023-02-03T02:58:48;99776.59;;;8.54;90.94
46007;BME280;31738;50.188;8.524;2023-02-03T03:01:15;99767.97;;;8.52;90.75
46007;BME280;31738;50.188;8.524;2023-02-03T03:03:41;99768.56;;;8.54;90.83
46007;BME280;31738;50.188;8.524;2023-02-03T03:10:00;99749.06;;;8.42;90.85
46007;BME280;31738;50.188;8.524;2023-02-03T03:12:31;99750.69;;;8.43;91.41
46007;BME280;31738;50.188;8.524;2023-02-03T03:15:06;99745.34;;;8.43;91.51
46007;BME280;31738;50.188;8.524;2023-02-03T03:17:40;99756.25;;;8.42;91.53
46007;BME280;31738;50.188;8.524;2023-02-03T03:20:20;99753.81;;;8.40;91.69
46007;BME280;31738;50.188;8.524;2023-02-03T03:22:51;99748.47;;;8.40;91.72
46007;BME280;31738;50.188;8.524;2023-02-03T03:25:23;99739.66;;;8.40;92.16
46007;BME280;31738;50.188;8.524;2023-02-03T03:27:59;99735.09;;;8.40;92.52
46007;BME280;31738;50.188;8.524;2023-02-03T03:30:28;99719.81;;;8.24;92.84
46007;BME280;31738;50.188;8.524;2023-02-03T03:32:56;99711.19;;;8.22;92.44
46007;BME280;31738;50.188;8.524;2023-02-03T03:35:57;99697.94;;;8.27;92.21
46007;BME280;31738;50.188;8.524;2023-02-03T03:38:33;99691.78;;;8.27;92.62
46007;BME280;31738;50.188;8.524;2023-02-03T03:41:31;99687.25;;;8.27;93.25
46007;BME280;31738;50.188;8.524;2023-02-03T03:44:20;99692.03;;;8.25;93.06
46007;BME280;31738;50.188;8.524;2023-02-03T03:46:56;99701.41;;;8.28;93.41
46007;BME280;31738;50.188;8.524;2023-02-03T03:49:24;99709.19;;;8.29;93.35
46007;BME280;31738;50.188;8.524;2023-02-03T03:51:57;99709.78;;;8.31;93.02
46007;BME280;31738;50.188;8.524;2023-02-03T03:54:27;99696.41;;;8.31;93.47
46007;BME280;31738;50.188;8.524;2023-02-03T03:57:11;99694.34;;;8.33;92.65
46007;BME280;31738;50.188;8.524;2023-02-03T03:59:46;99680.97;;;8.33;93.27
46007;BME280;31738;50.188;8.524;2023-02-03T04:02:30;99679.91;;;8.34;93.02
46007;BME280;31738;50.188;8.524;2023-02-03T04:05:01;99675.03;;;8.31;93.50
46007;BME280;31738;50.188;8.524;2023-02-03T04:07:43;99676.66;;;8.32;93.52
46007;BME280;31738;50.188;8.524;2023-02-03T04:10:31;99685.13;;;8.29;93.48
46007;BME280;31738;50.188;8.524;2023-02-03T04:13:00;99692.94;;;8.31;93.38
46007;BME280;31738;50.188;8.524;2023-02-03T04:15:27;99704.44;;;8.31;93.40
46007;BME280;31738;50.188;8.524;2023-02-03T04:17:52;99716.75;;;8.32;93.28
46007;BME280;31738;50.188;8.524;2023-02-03T04:20:31;99714.66;;;8.34;93.16
46007;BME280;31738;50.188;8.524;2023-02-03T04:22:58;99710.13;;;8.35;93.26
46007;BME280;31738;50.188;8.524;2023-02-03T04:25:24;99705.59;;;8.35;93.32
46007;BME280;31738;50.188;8.524;2023-02-03T04:27:50;99697.31;;;8.37;93.59
46007;BME280;31738;50.188;8.524;2023-02-03T04:30:15;99682.13;;;8.37;93.03
46007;BME280;31738;50.188;8.524;2023-02-03T04:32:52;99683.16;;;8.36;93.68
46007;BME280;31738;50.188;8.524;2023-02-03T04:35:22;99688.28;;;8.38;93.30
46007;BME280;31738;50.188;8.524;2023-02-03T04:37:47;99717.91;;;8.36;93.64
46007;BME280;31738;50.188;8.524;2023-02-03T04:40:22;99744.88;;;8.35;93.74
46007;BME280;31738;50.188;8.524;2023-02-03T04:42:57;99755.34;;;8.36;93.64
46007;BME280;31738;50.188;8.524;2023-02-03T04:45:23;99751.63;;;8.37;94.23
46007;BME280;31738;50.188;8.524;2023-02-03T04:47:52;99749.53;;;8.39;94.04
46007;BME280;31738;50.188;8.524;2023-02-03T04:50:18;99733.50;;;8.39;93.96
46007;BME280;31738;50.188;8.524;2023-02-03T04:52:43;99717.09;;;8.36;93.68
46007;BME280;31738;50.188;8.524;2023-02-03T04:55:09;99696.53;;;8.36;93.81
46007;BME280;31738;50.188;8.524;2023-02-03T04:57:47;99682.00;;;8.32;93.98
46007;BME280;31738;50.188;8.524;2023-02-03T05:00:18;99691.53;;;8.28;94.19
46007;BME280;31738;50.188;8.524;2023-02-03T05:02:43;99694.81;;;8.30;94.41
46007;BME280;31738;50.188;8.524;2023-02-03T05:05:09;99685.13;;;8.29;94.98
46007;BME280;31738;50.188;8.524;2023-02-03T05:07:47;99692.59;;;8.27;94.67
46007;BME280;31738;50.188;8.524;2023-02-03T05:10:12;99676.56;;;8.27;95.06
46007;BME280;31738;50.188;8.524;2023-02-03T05:12:38;99667.50;;;8.28;94.77
46007;BME280;31738;50.188;8.524;2023-02-03T05:15:03;99658.41;;;8.29;94.75
46007;BME280;31738;50.188;8.524;2023-02-03T05:17:29;99654.13;;;8.28;94.90
46007;BME280;31738;50.188;8.524;2023-02-03T05:19:54;99664.22;;;8.26;94.87
46007;BME280;31738;50.188;8.524;2023-02-03T05:22:20;99649.03;;;8.27;95.35
46007;BME280;31738;50.188;8.524;2023-02-03T05:24:45;99648.19;;;8.26;95.15
46007;BME280;31738;50.188;8.524;2023-02-03T05:27:11;99650.88;;;8.26;95.15
46007;BME280;31738;50.188;8.524;2023-02-03T05:29:36;99643.91;;;8.25;95.03
46007;BME280;31738;50.188;8.524;2023-02-03T05:32:02;99643.91;;;8.25;95.33
46007;BME280;31738;50.188;8.524;2023-02-03T05:34:28;99636.72;;;8.26;95.57
46007;BME280;31738;50.188;8.524;2023-02-03T05:36:54;99630.53;;;8.25;95.69
46007;BME280;31738;50.188;8.524;2023-02-03T05:39:19;99625.19;;;8.25;95.82
46007;BME280;31738;50.188;8.524;2023-02-03T05:42:30;99631.47;;;8.19;95.63
46007;BME280;31738;50.188;8.524;2023-02-03T05:45:28;99642.16;;;8.19;95.29
46007;BME280;31738;50.188;8.524;2023-02-03T05:47:57;99637.28;;;8.16;95.84
46007;BME280;31738;50.188;8.524;2023-02-03T05:50:23;99645.88;;;8.18;95.93
46007;BME280;31738;50.188;8.524;2023-02-03T05:52:49;99637.63;;;8.20;95.54
46007;BME280;31738;50.188;8.524;2023-02-03T05:55:14;99639.47;;;8.19;95.65
46007;BME280;31738;50.188;8.524;2023-02-03T06:01:05;99648.44;;;8.13;95.94
46007;BME280;31738;50.188;8.524;2023-02-03T06:03:30;99650.63;;;8.16;95.87
46007;BME280;31738;50.188;8.524;2023-02-03T06:05:55;99642.63;;;8.16;95.79
46007;BME280;31738;50.188;8.524;2023-02-03T06:08:21;99650.41;;;8.18;95.77
46007;BME280;31738;50.188;8.524;2023-02-03T06:10:47;99637.28;;;8.16;96.13
46007;BME280;31738;50.188;8.524;2023-02-03T06:13:20;99631.94;;;8.16;95.82
46007;BME280;31738;50.188;8.524;2023-02-03T06:15:58;99637.28;;;8.16;96.21
46007;BME280;31738;50.188;8.524;2023-02-03T06:18:35;99635.66;;;8.15;95.77
46007;BME280;31738;50.188;8.524;2023-02-03T06:21:01;99642.03;;;8.14;95.73
46007;BME280;31738;50.188;8.524;2023-02-03T06:23:29;99634.59;;;8.16;95.91
46007;BME280;31738;50.188;8.524;2023-02-03T06:29:10;99619.50;;;8.10;96.35
46007;BME280;31738;50.188;8.524;2023-02-03T06:31:36;99625.44;;;8.12;96.01
46007;BME280;31738;50.188;8.524;2023-02-03T06:34:03;99627.06;;;8.13;95.82
46007;BME280;31738;50.188;8.524;2023-02-03T06:36:31;99626.00;;;8.14;95.77
46007;BME280;31738;50.188;8.524;2023-02-03T06:38:59;99633.78;;;8.16;95.69
46007;BME280;31738;50.188;8.524;2023-02-03T06:41:25;99626.59;;;8.16;96.07
46007;BME280;31738;50.188;8.524;2023-02-03T06:43:55;99636.22;;;8.17;95.80
46007;BME280;31738;50.188;8.524;2023-02-03T06:46:20;99636.81;;;8.19;96.08
46007;BME280;31738;50.188;8.524;2023-02-03T06:48:46;99663.53;;;8.19;95.70
46007;BME280;31738;50.188;8.524;2023-02-03T06:51:11;99660.84;;;8.19;95.94
46007;BME280;31738;50.188;8.524;2023-02-03T06:53:37;99653.22;;;8.23;95.86
46007;BME280;31738;50.188;8.524;2023-02-03T06:56:02;99647.88;;;8.23;95.79
46007;BME280;31738;50.188;8.524;2023-02-03T06:58:36;99657.75;;;8.22;95.96
46007;BME280;31738;50.188;8.524;2023-02-03T07:01:01;99654.00;;;8.23;95.25
46007;BME280;31738;50.188;8.524;2023-02-03T07:03:31;99637.97;;;8.23;95.15
46007;BME280;31738;50.188;8.524;2023-02-03T07:05:56;99654.00;;;8.23;95.46
46007;BME280;31738;50.188;8.524;2023-02-03T07:08:24;99659.34;;;8.23;95.27
46007;BME280;31738;50.188;8.524;2023-02-03T07:10:55;99657.28;;;8.25;95.42
46007;BME280;31738;50.188;8.524;2023-02-03T07:13:20;99655.66;;;8.24;95.25
46007;BME280;31738;50.188;8.524;2023-02-03T07:15:46;99659.94;;;8.25;95.16
46007;BME280;31738;50.188;8.524;2023-02-03T07:18:11;99656.44;;;8.25;95.06
46007;BME280;31738;50.188;8.524;2023-02-03T07:20:37;99661.00;;;8.24;95.12
46007;BME280;31738;50.188;8.524;2023-02-03T07:23:12;99650.31;;;8.24;94.89
46007;BME280;31738;50.188;8.524;2023-02-03T07:25:38;99653.22;;;8.23;95.11
46007;BME280;31738;50.188;8.524;2023-02-03T07:28:04;99635.06;;;8.25;95.08
46007;BME280;31738;50.188;8.524;2023-02-03T07:30:32;99641.25;;;8.25;95.48
46007;BME280;31738;50.188;8.524;2023-02-03T07:32:57;99640.41;;;8.25;94.98
46007;BME280;31738;50.188;8.524;2023-02-03T07:35:23;99649.03;;;8.27;95.36
46007;BME280;31738;50.188;8.524;2023-02-03T07:37:55;99649.03;;;8.27;94.69
46007;BME280;31738;50.188;8.524;2023-02-03T07:40:20;99669.56;;;8.26;94.93
46007;BME280;31738;50.188;8.524;2023-02-03T07:42:47;99670.16;;;8.28;94.76
46007;BME280;31738;50.188;8.524;2023-02-03T07:45:18;99671.78;;;8.29;95.18
46007;BME280;31738;50.188;8.524;2023-02-03T07:47:46;99665.41;;;8.30;94.70
46007;BME280;31738;50.188;8.524;2023-02-03T07:50:12;99664.94;;;8.33;94.46
46007;BME280;31738;50.188;8.524;2023-02-03T07:52:38;99687.94;;;8.34;94.59
46007;BME280;31738;50.188;8.524;2023-02-03T07:55:04;99690.38;;;8.36;94.59
46007;BME280;31738;50.188;8.524;2023-02-03T07:57:30;99675.94;;;8.37;94.02
46007;BME280;31738;50.188;8.524;2023-02-03T08:03:14;99693.28;;;8.34;94.61
46007;BME280;31738;50.188;8.524;2023-02-03T08:05:40;99691.97;;;8.37;94.33
46007;BME280;31738;50.188;8.524;2023-02-03T08:08:09;99681.88;;;8.39;93.91
46007;BME280;31738;50.188;8.524;2023-02-03T08:10:34;99681.09;;;8.38;93.73
46007;BME280;31738;50.188;8.524;2023-02-03T08:13:00;99684.56;;;8.39;94.53
46007;BME280;31738;50.188;8.524;2023-02-03T08:19:11;99680.16;;;8.33;94.43
46007;BME280;31738;50.188;8.524;2023-02-03T08:21:37;99662.38;;;8.38;94.12
46007;BME280;31738;50.188;8.524;2023-02-03T08:24:03;99654.44;;;8.43;94.22
46007;BME280;31738;50.188;8.524;2023-02-03T08:26:32;99646.53;;;8.48;93.97
46007;BME280;31738;50.188;8.524;2023-02-03T08:29:00;99655.13;;;8.50;93.87
46007;BME280;31738;50.188;8.524;2023-02-03T08:35:17;99664.06;;;8.56;92.58
46007;BME280;31738;50.188;8.524;2023-02-03T08:37:53;99670.31;;;8.61;92.79
46007;BME280;31738;50.188;8.524;2023-02-03T08:41:15;99655.31;;;8.60;92.08
46007;BME280;31738;50.188;8.524;2023-02-03T08:43:42;99658.09;;;8.65;91.53
46007;BME280;31738;50.188;8.524;2023-02-03T08:49:11;99663.56;;;8.71;90.82
46007;BME280;31738;50.188;8.524;2023-02-03T08:51:36;99675.72;;;8.78;90.90
46007;BME280;31738;50.188;8.524;2023-02-03T08:54:02;99673.38;;;8.82;90.17
46007;BME280;31738;50.188;8.524;2023-02-03T08:56:28;99661.16;;;8.86;90.46
46007;BME280;31738;50.188;8.524;2023-02-03T08:58:53;99658.56;;;8.91;89.78
46007;BME280;31738;50.188;8.524;2023-02-03T09:01:19;99657.88;;;8.95;89.68
46007;BME280;31738;50.188;8.524;2023-02-03T09:03:45;99649.91;;;9.00;88.93
46007;BME280;31738;50.188;8.524;2023-02-03T09:06:22;99654.53;;;9.05;88.79
46007;BME280;31738;50.188;8.524;2023-02-03T09:08:48;99661.06;;;9.09;88.92
46007;BME280;31738;50.188;8.524;2023-02-03T09:11:16;99679.84;;;9.14;88.11
46007;BME280;31738;50.188;8.524;2023-02-03T09:13:44;99697.56;;;9.15;88.27
46007;BME280;31738;50.188;8.524;2023-02-03T09:16:11;99703.47;;;9.17;87.67
46007;BME280;31738;50.188;8.524;2023-02-03T09:18:37;99722.78;;;9.19;87.33
46007;BME280;31738;50.188;8.524;2023-02-03T09:21:04;99723.94;;;9.23;87.05
46007;BME280;31738;50.188;8.524;2023-02-03T09:23:30;99733.09;;;9.27;87.18
46007;BME280;31738;50.188;8.524;2023-02-03T09:26:00;99739.59;;;9.31;86.83
46007;BME280;31738;50.188;8.524;2023-02-03T09:28:26;99740.19;;;9.33;86.43
46007;BME280;31738;50.188;8.524;2023-02-03T09:30:51;99730.84;;;9.35;86.27
46007;BME280;31738;50.188;8.524;2023-02-03T09:33:17;99738.97;;;9.40;86.16
46007;BME280;31738;50.188;8.524;2023-02-03T09:39:00;99728.69;;;9.49;85.76
46007;BME280;31738;50.188;8.524;2023-02-03T09:44:11;99716.78;;;9.56;86.31
46007;BME280;31738;50.188;8.524;2023-02-03T09:47:20;99722.44;;;9.60;85.15
46007;BME280;31738;50.188;8.524;2023-02-03T09:50:25;99719.22;;;9.58;85.10
46007;BME280;31738;50.188;8.524;2023-02-03T09:53:06;99713.13;;;9.62;85.18
46007;BME280;31738;50.188;8.524;2023-02-03T09:55:56;99716.69;;;9.68;85.35
46007;BME280;31738;50.188;8.524;2023-02-03T09:58:39;99701.72;;;9.72;85.31
46007;BME280;31738;50.188;8.524;2023-02-03T10:01:15;99703.47;;;9.78;84.61
46007;BME280;31738;50.188;8.524;2023-02-03T10:04:06;99714.25;;;9.83;84.30
46007;BME280;31738;50.188;8.524;2023-02-03T10:06:46;99709.69;;;9.83;84.00
46007;BME280;31738;50.188;8.524;2023-02-03T10:09:49;99715.94;;;9.89;84.09
46007;BME280;31738;50.188;8.524;2023-02-03T10:18:01;99716.13;;;9.99;83.65
46007;BME280;31738;50.188;8.524;2023-02-03T10:20:53;99733.31;;;10.03;83.32
46007;BME280;31738;50.188;8.524;2023-02-03T10:25:54;99732.59;;;10.07;83.20
46007;BME280;31738;50.188;8.524;2023-02-03T10:28:31;99730.50;;;10.09;82.84
46007;BME280;31738;50.188;8.524;2023-02-03T10:31:36;99737.19;;;10.07;79.42
46007;BME280;31738;50.188;8.524;2023-02-03T10:34:13;99749.50;;;10.08;82.97
46007;BME280;31738;50.188;8.524;2023-02-03T10:39:50;99762.31;;;10.06;83.07
46007;BME280;31738;50.188;8.524;2023-02-03T10:42:26;99772.81;;;10.07;82.59
46007;BME280;31738;50.188;8.524;2023-02-03T10:45:26;99764.00;;;10.07;82.43
46007;BME280;31738;50.188;8.524;2023-02-03T10:48:02;99753.81;;;10.09;82.82
46007;BME280;31738;50.188;8.524;2023-02-03T10:50:47;99766.41;;;10.08;82.88
46007;BME280;31738;50.188;8.524;2023-02-03T10:53:32;99758.13;;;10.10;83.06
46007;BME280;31738;50.188;8.524;2023-02-03T10:56:16;99769.97;;;10.14;82.92
46007;BME280;31738;50.188;8.524;2023-02-03T10:58:51;99764.38;;;10.15;82.97
46007;BME280;31738;50.188;8.524;2023-02-03T11:04:37;99730.00;;;10.12;83.06
46007;BME280;31738;50.188;8.524;2023-02-03T11:07:23;99708.81;;;10.11;84.03
46007;BME280;31738;50.188;8.524;2023-02-03T11:10:32;99699.16;;;10.10;84.56
46007;BME280;31738;50.188;8.524;2023-02-03T11:13:23;99697.50;;;10.09;85.36
46007;BME280;31738;50.188;8.524;2023-02-03T11:15:58;99689.72;;;10.07;85.22
46007;BME280;31738;50.188;8.524;2023-02-03T11:18:51;99677.34;;;10.06;85.69
46007;BME280;31738;50.188;8.524;2023-02-03T11:21:41;99672.50;;;10.03;86.03
46007;BME280;31738;50.188;8.524;2023-02-03T11:27:20;99667.78;;;9.94;86.69
46007;BME280;31738;50.188;8.524;2023-02-03T11:30:13;99661.94;;;9.97;86.55
46007;BME280;31738;50.188;8.524;2023-02-03T11:33:31;99685.31;;;10.01;86.33
46007;BME280;31738;50.188;8.524;2023-02-03T11:36:02;99688.25;;;10.00;86.60
46007;BME280;31738;50.188;8.524;2023-02-03T11:38:43;99693.59;;;10.00;86.32
46007;BME280;31738;50.188;8.524;2023-02-03T11:41:55;99693.59;;;10.00;86.37
46007;BME280;31738;50.188;8.524;2023-02-03T11:51:36;99682.75;;;9.90;86.99
46007;BME280;31738;50.188;8.524;2023-02-03T12:05:30;99636.13;;;9.91;87.19
46007;BME280;31738;50.188;8.524;2023-02-03T12:12:19;99610.16;;;9.91;86.95
46007;BME280;31738;50.188;8.524;2023-02-03T12:20:58;99578.84;;;9.97;87.62
46007;BME280;31738;50.188;8.524;2023-02-03T12:26:33;99590.22;;;10.04;87.84
46007;BME280;31738;50.188;8.524;2023-02-03T12:29:41;99589.06;;;10.00;87.83
46007;BME280;31738;50.188;8.524;2023-02-03T12:35:04;99602.41;;;9.95;88.29
46007;BME280;31738;50.188;8.524;2023-02-03T12:37:51;99598.59;;;9.91;88.86
46007;BME280;31738;50.188;8.524;2023-02-03T12:40:43;99611.44;;;9.89;89.11
46007;BME280;31738;50.188;8.524;2023-02-03T12:43:43;99632.38;;;9.92;88.47
46007;BME280;31738;50.188;8.524;2023-02-03T12:46:25;99628.34;;;9.89;88.69
46007;BME280;31738;50.188;8.524;2023-02-03T12:48:57;99630.75;;;9.91;88.67
46007;BME280;31738;50.188;8.524;2023-02-03T12:58:01;99613.06;;;9.90;89.59
46007;BME280;31738;50.188;8.524;2023-02-03T13:03:47;99604.97;;;9.85;89.57
46007;BME280;31738;50.188;8.524;2023-02-03T13:06:48;99585.13;;;9.86;89.59
46007;BME280;31738;50.188;8.524;2023-02-03T13:12:35;99569.56;;;9.83;90.27
46007;BME280;31738;50.188;8.524;2023-02-03T13:18:28;99559.34;;;9.80;91.37
46007;BME280;31738;50.188;8.524;2023-02-03T13:21:01;99551.53;;;9.78;90.81
46007;BME280;31738;50.188;8.524;2023-02-03T13:23:36;99553.97;;;9.80;91.38
46007;BME280;31738;50.188;8.524;2023-02-03T13:36:10;99566.25;;;9.76;91.47
46007;BME280;31738;50.188;8.524;2023-02-03T13:46:59;99548.91;;;9.62;92.43
46007;BME280;31738;50.188;8.524;2023-02-03T13:49:32;99561.31;;;9.68;92.80
46007;BME280;31738;50.188;8.524;2023-02-03T13:51:58;99552.78;;;9.71;92.64
46007;BME280;31738;50.188;8.524;2023-02-03T13:54:41;99554.97;;;9.74;92.71
46007;BME280;31738;50.188;8.524;2023-02-03T13:57:22;99540.28;;;9.76;92.97
46007;BME280;31738;50.188;8.524;2023-02-03T14:02:52;99521.53;;;9.76;93.56
46007;BME280;31738;50.188;8.524;2023-02-03T14:05:39;99526.06;;;9.76;93.57
46007;BME280;31738;50.188;8.524;2023-02-03T14:18:42;99551.16;;;9.70;93.94
46007;BME280;31738;50.188;8.524;2023-02-03T14:20:51;99561.88;;;9.70;93.96
46007;BME280;31738;50.188;8.524;2023-02-03T14:23:27;99567.56;;;9.73;94.25
46007;BME280;31738;50.188;8.524;2023-02-03T14:25:57;99567.31;;;9.75;94.40
46007;BME280;31738;50.188;8.524;2023-02-03T14:28:29;99561.47;;;9.78;94.16
46007;BME280;31738;50.188;8.524;2023-02-03T14:35:39;99567.50;;;9.68;94.64
46007;BME280;31738;50.188;8.524;2023-02-03T14:49:05;99524.88;;;9.67;94.88
46007;BME280;31738;50.188;8.524;2023-02-03T14:57:41;99542.16;;;9.76;95.51
46007;BME280;31738;50.188;8.524;2023-02-03T15:00:33;99540.66;;;9.85;95.40
46007;BME280;31738;50.188;8.524;2023-02-03T15:13:04;99558.84;;;9.83;95.57
46007;BME280;31738;50.188;8.524;2023-02-03T15:15:33;99557.84;;;9.89;95.57
46007;BME280;31738;50.188;8.524;2023-02-03T15:18:19;99586.91;;;9.97;95.26
46007;BME280;31738;50.188;8.524;2023-02-03T15:20:45;99571.88;;;9.96;95.19
46007;BME280;31738;50.188;8.524;2023-02-03T15:23:19;99577.78;;;9.98;95.02
46007;BME280;31738;50.188;8.524;2023-02-03T15:25:52;99582.09;;;9.99;95.22
46007;BME280;31738;50.188;8.524;2023-02-03T15:28:21;99573.56;;;10.02;94.62
46007;BME280;31738;50.188;8.524;2023-02-03T15:31:17;99589.16;;;10.05;94.41
46007;BME280;31738;50.188;8.524;2023-02-03T15:33:44;99595.34;;;10.05;94.67
46007;BME280;31738;50.188;8.524;2023-02-03T15:36:21;99602.31;;;10.06;94.64
46007;BME280;31738;50.188;8.524;2023-02-03T15:38:57;99597.19;;;10.05;94.68
46007;BME280;31738;50.188;8.524;2023-02-03T15:41:29;99594.50;;;10.05;94.34
46007;BME280;31738;50.188;8.524;2023-02-03T15:44:01;99601.97;;;10.03;94.67
46007;BME280;31738;50.188;8.524;2023-02-03T15:46:37;99586.97;;;10.02;94.53
46007;BME280;31738;50.188;8.524;2023-02-03T15:49:15;99606.81;;;10.01;94.61
46007;BME280;31738;50.188;8.524;2023-02-03T15:51:48;99595.00;;;10.02;94.57
46007;BME280;31738;50.188;8.524;2023-02-03T15:54:28;99592.31;;;10.02;94.42
46007;BME280;31738;50.188;8.524;2023-02-03T15:56:58;99609.47;;;10.01;94.74
46007;BME280;31738;50.188;8.524;2023-02-03T15:59:34;99607.34;;;10.03;94.76
46007;BME280;31738;50.188;8.524;2023-02-03T16:02:06;99598.75;;;10.01;94.69
46007;BME280;31738;50.188;8.524;2023-02-03T16:04:37;99606.22;;;9.99;95.02
46007;BME280;31738;50.188;8.524;2023-02-03T16:07:03;99598.75;;;10.01;94.46
46007;BME280;31738;50.188;8.524;2023-02-03T16:09:38;99606.31;;;10.04;94.68
46007;BME280;31738;50.188;8.524;2023-02-03T16:12:15;99602.47;;;10.00;94.31
46007;BME280;31738;50.188;8.524;2023-02-03T16:14:41;99609.94;;;9.98;94.88
46007;BME280;31738;50.188;8.524;2023-02-03T16:17:34;99612.09;;;9.96;94.48
46007;BME280;31738;50.188;8.524;2023-02-03T16:22:57;99612.09;;;9.96;94.75
46007;BME280;31738;50.188;8.524;2023-02-03T16:25:26;99614.75;;;9.96;95.01
46007;BME280;31738;50.188;8.524;2023-02-03T16:27:56;99619.06;;;9.97;95.09
46007;BME280;31738;50.188;8.524;2023-02-03T16:31:07;99615.81;;;9.95;94.75
46007;BME280;31738;50.188;8.524;2023-02-03T16:33:53;99621.91;;;9.90;95.15
46007;BME280;31738;50.188;8.524;2023-02-03T16:36:40;99622.16;;;9.89;95.24
46007;BME280;31738;50.188;8.524;2023-02-03T16:39:25;99619.72;;;9.87;95.17